sensor_id;sensor_type;location;lat;lon;timestamp;P1;durP1;ratioP1;P2;durP2;ratioP2
10847;SDS011;5477;48.806;9.154;2023-11-21T00:00:05;7.50;;;1.87;;
10847;SDS011;5477;48.806;9.154;2023-11-21T00:02:39;5.83;;;1.63;;
10847;SDS011;5477;48.806;9.154;2023-11-21T00:05:07;5.10;;;1.80;;
10847;SDS011;5477;48.806;9.154;2023-11-21T00:07:36;5.67;;;1.40;;
10847;SDS011;5477;48.806;9.154;2023-11-21T00:10:05;7.17;;;1.70;;
10847;SDS011;5477;48.806;9.154;2023-11-21T00:12:37;4.03;;;1.70;;
10847;SDS011;5477;48.806;9.154;2023-11-21T00:15:08;2.27;;;1.50;;
10847;SDS011;5477;48.806;9.154;2023-11-21T00:17:38;2.77;;;1.63;;
10847;SDS011;5477;48.806;9.154;2023-11-21T00:20:06;4.73;;;1.73;;
10847;SDS011;5477;48.806;9.154;2023-11-21T00:22:35;4.10;;;1.77;;
10847;SDS011;5477;48.806;9.154;2023-11-21T00:25:03;4.50;;;1.80;;
10847;SDS011;5477;48.806;9.154;2023-11-21T00:27:33;6.77;;;1.60;;
10847;SDS011;5477;48.806;9.154;2023-11-21T00:30:04;4.93;;;1.77;;
10847;SDS011;5477;48.806;9.154;2023-11-21T00:32:35;7.50;;;1.60;;
10847;SDS011;5477;48.806;9.154;2023-11-21T00:35:03;3.90;;;1.63;;
10847;SDS011;5477;48.806;9.154;2023-11-21T00:37:32;3.43;;;1.60;;
10847;SDS011;5477;48.806;9.154;2023-11-21T00:40:00;4.27;;;1.67;;
10847;SDS011;5477;48.806;9.154;2023-11-21T00:42:34;3.33;;;1.43;;
10847;SDS011;5477;48.806;9.154;2023-11-21T00:45:02;5.03;;;1.70;;
10847;SDS011;5477;48.806;9.154;2023-11-21T00:47:31;4.60;;;2.07;;
10847;SDS011;5477;48.806;9.154;2023-11-21T00:49:59;4.73;;;1.60;;
10847;SDS011;5477;48.806;9.154;2023-11-21T00:52:29;5.67;;;1.80;;
10847;SDS011;5477;48.806;9.154;2023-11-21T00:54:57;5.23;;;1.90;;
10847;SDS011;5477;48.806;9.154;2023-11-21T00:57:26;4.03;;;1.80;;
10847;SDS011;5477;48.806;9.154;2023-11-21T00:59:55;5.73;;;1.97;;
10847;SDS011;5477;48.806;9.154;2023-11-21T01:02:23;4.00;;;1.87;;
10847;SDS011;5477;48.806;9.154;2023-11-21T01:04:52;3.80;;;1.63;;
10847;SDS011;5477;48.806;9.154;2023-11-21T01:07:20;5.83;;;2.13;;
10847;SDS011;5477;48.806;9.154;2023-11-21T01:09:49;6.07;;;1.90;;
10847;SDS011;5477;48.806;9.154;2023-11-21T01:12:17;5.83;;;1.63;;
10847;SDS011;5477;48.806;9.154;2023-11-21T01:14:45;4.23;;;1.60;;
10847;SDS011;5477;48.806;9.154;2023-11-21T01:17:14;4.10;;;1.87;;
10847;SDS011;5477;48.806;9.154;2023-11-21T01:19:43;3.40;;;1.60;;
10847;SDS011;5477;48.806;9.154;2023-11-21T01:22:11;4.53;;;1.60;;
10847;SDS011;5477;48.806;9.154;2023-11-21T01:24:39;4.50;;;1.50;;
10847;SDS011;5477;48.806;9.154;2023-11-21T01:27:07;4.80;;;1.70;;
10847;SDS011;5477;48.806;9.154;2023-11-21T01:29:35;2.43;;;1.63;;
10847;SDS011;5477;48.806;9.154;2023-11-21T01:32:03;4.90;;;1.63;;
10847;SDS011;5477;48.806;9.154;2023-11-21T01:34:36;7.37;;;1.77;;
10847;SDS011;5477;48.806;9.154;2023-11-21T01:37:04;5.20;;;2.10;;
10847;SDS011;5477;48.806;9.154;2023-11-21T01:39:32;4.17;;;1.40;;
10847;SDS011;5477;48.806;9.154;2023-11-21T01:42:01;3.20;;;1.50;;
10847;SDS011;5477;48.806;9.154;2023-11-21T01:44:28;4.17;;;1.63;;
10847;SDS011;5477;48.806;9.154;2023-11-21T01:46:56;3.67;;;1.53;;
10847;SDS011;5477;48.806;9.154;2023-11-21T01:49:25;4.97;;;1.53;;
10847;SDS011;5477;48.806;9.154;2023-11-21T01:51:54;3.40;;;1.47;;
10847;SDS011;5477;48.806;9.154;2023-11-21T01:54:23;3.80;;;1.23;;
10847;SDS011;5477;48.806;9.154;2023-11-21T01:56:51;5.20;;;1.60;;
10847;SDS011;5477;48.806;9.154;2023-11-21T01:59:19;5.20;;;1.47;;
10847;SDS011;5477;48.806;9.154;2023-11-21T02:01:48;3.97;;;1.70;;
10847;SDS011;5477;48.806;9.154;2023-11-21T02:04:18;5.00;;;1.50;;
10847;SDS011;5477;48.806;9.154;2023-11-21T02:06:47;3.70;;;1.40;;
10847;SDS011;5477;48.806;9.154;2023-11-21T02:09:24;3.43;;;1.13;;
10847;SDS011;5477;48.806;9.154;2023-11-21T02:11:53;4.47;;;1.27;;
10847;SDS011;5477;48.806;9.154;2023-11-21T02:14:24;7.23;;;1.67;;
10847;SDS011;5477;48.806;9.154;2023-11-21T02:16:53;3.90;;;1.30;;
10847;SDS011;5477;48.806;9.154;2023-11-21T02:19:22;3.80;;;1.37;;
10847;SDS011;5477;48.806;9.154;2023-11-21T02:21:52;1.73;;;1.20;;
10847;SDS011;5477;48.806;9.154;2023-11-21T02:24:22;3.57;;;1.20;;
10847;SDS011;5477;48.806;9.154;2023-11-21T02:26:50;2.47;;;1.30;;
10847;SDS011;5477;48.806;9.154;2023-11-21T02:29:19;2.53;;;1.20;;
10847;SDS011;5477;48.806;9.154;2023-11-21T02:34:21;3.30;;;1.30;;
10847;SDS011;5477;48.806;9.154;2023-11-21T02:36:51;4.73;;;1.20;;
10847;SDS011;5477;48.806;9.154;2023-11-21T02:39:20;4.63;;;1.30;;
10847;SDS011;5477;48.806;9.154;2023-11-21T02:41:51;4.77;;;1.23;;
10847;SDS011;5477;48.806;9.154;2023-11-21T02:44:19;3.27;;;1.30;;
10847;SDS011;5477;48.806;9.154;2023-11-21T02:46:47;2.37;;;1.20;;
10847;SDS011;5477;48.806;9.154;2023-11-21T02:49:15;4.17;;;1.40;;
10847;SDS011;5477;48.806;9.154;2023-11-21T02:51:43;4.00;;;1.20;;
10847;SDS011;5477;48.806;9.154;2023-11-21T02:54:11;3.87;;;0.97;;
10847;SDS011;5477;48.806;9.154;2023-11-21T02:56:41;2.07;;;1.20;;
10847;SDS011;5477;48.806;9.154;2023-11-21T02:59:11;4.17;;;1.27;;
10847;SDS011;5477;48.806;9.154;2023-11-21T03:01:39;4.73;;;1.27;;
10847;SDS011;5477;48.806;9.154;2023-11-21T03:04:07;5.33;;;1.20;;
10847;SDS011;5477;48.806;9.154;2023-11-21T03:06:35;2.87;;;1.10;;
10847;SDS011;5477;48.806;9.154;2023-11-21T03:09:03;2.00;;;1.00;;
10847;SDS011;5477;48.806;9.154;2023-11-21T03:11:33;2.17;;;1.20;;
10847;SDS011;5477;48.806;9.154;2023-11-21T03:14:01;4.10;;;1.30;;
10847;SDS011;5477;48.806;9.154;2023-11-21T03:16:31;2.93;;;1.30;;
10847;SDS011;5477;48.806;9.154;2023-11-21T03:18:59;1.40;;;0.93;;
10847;SDS011;5477;48.806;9.154;2023-11-21T03:21:28;1.17;;;1.00;;
10847;SDS011;5477;48.806;9.154;2023-11-21T03:23:56;4.57;;;1.37;;
10847;SDS011;5477;48.806;9.154;2023-11-21T03:26:26;1.67;;;1.00;;
10847;SDS011;5477;48.806;9.154;2023-11-21T03:28:54;2.40;;;1.20;;
10847;SDS011;5477;48.806;9.154;2023-11-21T03:31:22;2.30;;;1.20;;
10847;SDS011;5477;48.806;9.154;2023-11-21T03:33:52;2.07;;;1.37;;
10847;SDS011;5477;48.806;9.154;2023-11-21T03:36:20;3.27;;;1.30;;
10847;SDS011;5477;48.806;9.154;2023-11-21T03:38:48;1.97;;;0.97;;
10847;SDS011;5477;48.806;9.154;2023-11-21T03:41:16;6.30;;;1.20;;
10847;SDS011;5477;48.806;9.154;2023-11-21T03:43:44;2.90;;;1.17;;
10847;SDS011;5477;48.806;9.154;2023-11-21T03:46:13;3.00;;;0.80;;
10847;SDS011;5477;48.806;9.154;2023-11-21T03:48:41;1.67;;;0.97;;
10847;SDS011;5477;48.806;9.154;2023-11-21T03:51:11;1.53;;;0.90;;
10847;SDS011;5477;48.806;9.154;2023-11-21T03:53:39;2.20;;;1.10;;
10847;SDS011;5477;48.806;9.154;2023-11-21T03:56:09;2.83;;;1.17;;
10847;SDS011;5477;48.806;9.154;2023-11-21T03:58:38;3.23;;;0.80;;
10847;SDS011;5477;48.806;9.154;2023-11-21T04:01:06;2.77;;;0.93;;
10847;SDS011;5477;48.806;9.154;2023-11-21T04:03:34;1.97;;;1.10;;
10847;SDS011;5477;48.806;9.154;2023-11-21T04:06:03;1.33;;;0.80;;
10847;SDS011;5477;48.806;9.154;2023-11-21T04:08:33;1.97;;;1.13;;
10847;SDS011;5477;48.806;9.154;2023-11-21T04:11:01;3.03;;;1.10;;
10847;SDS011;5477;48.806;9.154;2023-11-21T04:13:30;2.90;;;1.07;;
10847;SDS011;5477;48.806;9.154;2023-11-21T04:15:58;2.17;;;1.00;;
10847;SDS011;5477;48.806;9.154;2023-11-21T04:18:29;2.77;;;0.90;;
10847;SDS011;5477;48.806;9.154;2023-11-21T04:20:57;1.73;;;1.03;;
10847;SDS011;5477;48.806;9.154;2023-11-21T04:23:25;4.20;;;1.00;;
10847;SDS011;5477;48.806;9.154;2023-11-21T04:25:55;2.63;;;0.87;;
10847;SDS011;5477;48.806;9.154;2023-11-21T04:28:23;1.27;;;0.80;;
10847;SDS011;5477;48.806;9.154;2023-11-21T04:30:51;1.90;;;0.97;;
10847;SDS011;5477;48.806;9.154;2023-11-21T04:33:19;2.10;;;0.90;;
10847;SDS011;5477;48.806;9.154;2023-11-21T04:35:48;1.30;;;0.90;;
10847;SDS011;5477;48.806;9.154;2023-11-21T04:38:16;2.40;;;1.03;;
10847;SDS011;5477;48.806;9.154;2023-11-21T04:40:45;1.67;;;0.93;;
10847;SDS011;5477;48.806;9.154;2023-11-21T04:43:14;2.10;;;1.00;;
10847;SDS011;5477;48.806;9.154;2023-11-21T04:45:43;2.17;;;1.00;;
10847;SDS011;5477;48.806;9.154;2023-11-21T04:48:11;3.73;;;0.80;;
10847;SDS011;5477;48.806;9.154;2023-11-21T04:50:40;2.87;;;1.00;;
10847;SDS011;5477;48.806;9.154;2023-11-21T04:53:08;2.33;;;0.90;;
10847;SDS011;5477;48.806;9.154;2023-11-21T04:55:39;1.53;;;1.03;;
10847;SDS011;5477;48.806;9.154;2023-11-21T04:58:07;2.17;;;0.97;;
10847;SDS011;5477;48.806;9.154;2023-11-21T05:00:37;3.83;;;1.23;;
10847;SDS011;5477;48.806;9.154;2023-11-21T05:03:06;2.47;;;1.03;;
10847;SDS011;5477;48.806;9.154;2023-11-21T05:05:34;1.53;;;1.20;;
10847;SDS011;5477;48.806;9.154;2023-11-21T05:08:02;2.77;;;0.93;;
10847;SDS011;5477;48.806;9.154;2023-11-21T05:10:31;1.73;;;1.47;;
10847;SDS011;5477;48.806;9.154;2023-11-21T05:12:59;1.60;;;1.10;;
10847;SDS011;5477;48.806;9.154;2023-11-21T05:15:27;2.07;;;1.10;;
10847;SDS011;5477;48.806;9.154;2023-11-21T05:17:56;2.10;;;1.00;;
10847;SDS011;5477;48.806;9.154;2023-11-21T05:20:26;2.60;;;0.90;;
10847;SDS011;5477;48.806;9.154;2023-11-21T05:22:55;3.80;;;1.03;;
10847;SDS011;5477;48.806;9.154;2023-11-21T05:25:25;0.80;;;0.63;;
10847;SDS011;5477;48.806;9.154;2023-11-21T05:27:53;4.73;;;1.10;;
10847;SDS011;5477;48.806;9.154;2023-11-21T05:30:21;1.43;;;1.03;;
10847;SDS011;5477;48.806;9.154;2023-11-21T05:32:49;2.73;;;0.97;;
10847;SDS011;5477;48.806;9.154;2023-11-21T05:35:19;1.20;;;0.90;;
10847;SDS011;5477;48.806;9.154;2023-11-21T05:37:47;2.83;;;0.97;;
10847;SDS011;5477;48.806;9.154;2023-11-21T05:40:15;3.30;;;1.10;;
10847;SDS011;5477;48.806;9.154;2023-11-21T05:42:44;1.30;;;0.80;;
10847;SDS011;5477;48.806;9.154;2023-11-21T05:45:12;1.20;;;1.00;;
10847;SDS011;5477;48.806;9.154;2023-11-21T05:47:41;1.30;;;0.90;;
10847;SDS011;5477;48.806;9.154;2023-11-21T05:50:10;1.80;;;0.80;;
10847;SDS011;5477;48.806;9.154;2023-11-21T05:52:42;1.27;;;0.80;;
10847;SDS011;5477;48.806;9.154;2023-11-21T05:55:11;1.20;;;0.70;;
10847;SDS011;5477;48.806;9.154;2023-11-21T05:57:40;4.33;;;1.00;;
10847;SDS011;5477;48.806;9.154;2023-11-21T06:00:10;1.00;;;0.80;;
10847;SDS011;5477;48.806;9.154;2023-11-21T06:02:44;1.20;;;0.87;;
10847;SDS011;5477;48.806;9.154;2023-11-21T06:05:13;1.43;;;1.00;;
10847;SDS011;5477;48.806;9.154;2023-11-21T06:07:43;1.73;;;0.90;;
10847;SDS011;5477;48.806;9.154;2023-11-21T06:10:11;4.03;;;1.20;;
10847;SDS011;5477;48.806;9.154;2023-11-21T06:12:41;2.40;;;1.07;;
10847;SDS011;5477;48.806;9.154;2023-11-21T06:15:10;2.33;;;0.90;;
10847;SDS011;5477;48.806;9.154;2023-11-21T06:17:40;1.53;;;0.70;;
10847;SDS011;5477;48.806;9.154;2023-11-21T06:20:09;1.87;;;1.00;;
10847;SDS011;5477;48.806;9.154;2023-11-21T06:22:42;3.13;;;0.97;;
10847;SDS011;5477;48.806;9.154;2023-11-21T06:25:11;4.53;;;1.77;;
10847;SDS011;5477;48.806;9.154;2023-11-21T06:27:40;2.80;;;1.07;;
10847;SDS011;5477;48.806;9.154;2023-11-21T06:30:11;0.93;;;0.70;;
10847;SDS011;5477;48.806;9.154;2023-11-21T06:32:40;1.30;;;0.77;;
10847;SDS011;5477;48.806;9.154;2023-11-21T06:35:12;1.47;;;0.87;;
10847;SDS011;5477;48.806;9.154;2023-11-21T06:37:44;0.97;;;0.87;;
10847;SDS011;5477;48.806;9.154;2023-11-21T06:40:16;3.83;;;1.03;;
10847;SDS011;5477;48.806;9.154;2023-11-21T06:42:46;1.50;;;1.20;;
10847;SDS011;5477;48.806;9.154;2023-11-21T06:45:14;1.63;;;1.20;;
10847;SDS011;5477;48.806;9.154;2023-11-21T06:47:43;1.50;;;1.07;;
10847;SDS011;5477;48.806;9.154;2023-11-21T06:50:11;1.83;;;0.90;;
10847;SDS011;5477;48.806;9.154;2023-11-21T06:52:39;1.60;;;1.00;;
10847;SDS011;5477;48.806;9.154;2023-11-21T06:55:09;2.77;;;1.20;;
10847;SDS011;5477;48.806;9.154;2023-11-21T06:57:38;5.70;;;1.10;;
10847;SDS011;5477;48.806;9.154;2023-11-21T07:00:06;3.17;;;1.60;;
10847;SDS011;5477;48.806;9.154;2023-11-21T07:02:36;4.00;;;0.90;;
10847;SDS011;5477;48.806;9.154;2023-11-21T07:05:05;1.10;;;1.00;;
10847;SDS011;5477;48.806;9.154;2023-11-21T07:07:33;2.87;;;0.90;;
10847;SDS011;5477;48.806;9.154;2023-11-21T07:10:04;2.80;;;0.90;;
10847;SDS011;5477;48.806;9.154;2023-11-21T07:12:34;1.13;;;1.00;;
10847;SDS011;5477;48.806;9.154;2023-11-21T07:15:02;2.43;;;1.10;;
10847;SDS011;5477;48.806;9.154;2023-11-21T07:17:32;1.87;;;1.20;;
10847;SDS011;5477;48.806;9.154;2023-11-21T07:20:03;3.00;;;1.43;;
10847;SDS011;5477;48.806;9.154;2023-11-21T07:22:33;2.10;;;1.27;;
10847;SDS011;5477;48.806;9.154;2023-11-21T07:25:01;1.37;;;1.13;;
10847;SDS011;5477;48.806;9.154;2023-11-21T07:27:29;2.30;;;1.30;;
10847;SDS011;5477;48.806;9.154;2023-11-21T07:29:58;2.83;;;1.23;;
10847;SDS011;5477;48.806;9.154;2023-11-21T07:32:26;1.30;;;1.20;;
10847;SDS011;5477;48.806;9.154;2023-11-21T07:34:54;1.37;;;1.20;;
10847;SDS011;5477;48.806;9.154;2023-11-21T07:37:24;2.03;;;1.40;;
10847;SDS011;5477;48.806;9.154;2023-11-21T07:39:55;2.17;;;1.60;;
10847;SDS011;5477;48.806;9.154;2023-11-21T07:42:23;2.70;;;1.83;;
10847;SDS011;5477;48.806;9.154;2023-11-21T07:44:53;2.23;;;1.50;;
10847;SDS011;5477;48.806;9.154;2023-11-21T07:47:22;2.27;;;1.50;;
10847;SDS011;5477;48.806;9.154;2023-11-21T07:49:53;2.43;;;1.43;;
10847;SDS011;5477;48.806;9.154;2023-11-21T07:52:23;2.00;;;1.40;;
10847;SDS011;5477;48.806;9.154;2023-11-21T07:54:51;2.37;;;1.43;;
10847;SDS011;5477;48.806;9.154;2023-11-21T07:57:20;3.03;;;1.60;;
10847;SDS011;5477;48.806;9.154;2023-11-21T07:59:48;2.40;;;1.47;;
10847;SDS011;5477;48.806;9.154;2023-11-21T08:02:16;1.60;;;1.30;;
10847;SDS011;5477;48.806;9.154;2023-11-21T08:04:45;2.07;;;1.70;;
10847;SDS011;5477;48.806;9.154;2023-11-21T08:07:16;2.03;;;1.30;;
10847;SDS011;5477;48.806;9.154;2023-11-21T08:09:44;1.97;;;1.10;;
10847;SDS011;5477;48.806;9.154;2023-11-21T08:12:14;2.40;;;1.20;;
10847;SDS011;5477;48.806;9.154;2023-11-21T08:14:43;2.60;;;1.67;;
10847;SDS011;5477;48.806;9.154;2023-11-21T08:17:11;1.67;;;1.40;;
10847;SDS011;5477;48.806;9.154;2023-11-21T08:19:42;3.93;;;1.60;;
10847;SDS011;5477;48.806;9.154;2023-11-21T08:22:12;3.90;;;1.77;;
10847;SDS011;5477;48.806;9.154;2023-11-21T08:24:42;2.10;;;1.63;;
10847;SDS011;5477;48.806;9.154;2023-11-21T08:27:10;2.07;;;1.50;;
10847;SDS011;5477;48.806;9.154;2023-11-21T08:29:38;6.37;;;1.77;;
10847;SDS011;5477;48.806;9.154;2023-11-21T08:32:06;2.83;;;1.30;;
10847;SDS011;5477;48.806;9.154;2023-11-21T08:38:54;3.00;;;1.30;;
10847;SDS011;5477;48.806;9.154;2023-11-21T08:45:49;1.53;;;1.10;;
10847;SDS011;5477;48.806;9.154;2023-11-21T08:48:18;2.37;;;1.00;;
10847;SDS011;5477;48.806;9.154;2023-11-21T08:50:47;2.07;;;1.10;;
10847;SDS011;5477;48.806;9.154;2023-11-21T08:53:15;1.30;;;0.90;;
10847;SDS011;5477;48.806;9.154;2023-11-21T08:55:45;1.10;;;1.00;;
10847;SDS011;5477;48.806;9.154;2023-11-21T08:58:14;1.17;;;0.93;;
10847;SDS011;5477;48.806;9.154;2023-11-21T09:00:43;3.37;;;1.20;;
10847;SDS011;5477;48.806;9.154;2023-11-21T09:03:12;1.30;;;1.00;;
10847;SDS011;5477;48.806;9.154;2023-11-21T09:05:41;1.50;;;0.80;;
10847;SDS011;5477;48.806;9.154;2023-11-21T09:08:11;2.67;;;1.17;;
10847;SDS011;5477;48.806;9.154;2023-11-21T09:10:39;2.77;;;1.13;;
10847;SDS011;5477;48.806;9.154;2023-11-21T09:13:11;1.33;;;1.00;;
10847;SDS011;5477;48.806;9.154;2023-11-21T09:15:39;2.80;;;1.07;;
10847;SDS011;5477;48.806;9.154;2023-11-21T09:18:08;4.93;;;1.20;;
10847;SDS011;5477;48.806;9.154;2023-11-21T09:20:37;1.57;;;1.00;;
10847;SDS011;5477;48.806;9.154;2023-11-21T09:23:05;2.73;;;1.10;;
10847;SDS011;5477;48.806;9.154;2023-11-21T09:25:33;2.30;;;1.07;;
10847;SDS011;5477;48.806;9.154;2023-11-21T09:28:03;1.40;;;1.10;;
10847;SDS011;5477;48.806;9.154;2023-11-21T09:30:35;2.93;;;1.30;;
10847;SDS011;5477;48.806;9.154;2023-11-21T09:33:03;1.53;;;1.10;;
10847;SDS011;5477;48.806;9.154;2023-11-21T09:35:34;3.43;;;1.30;;
10847;SDS011;5477;48.806;9.154;2023-11-21T09:38:02;1.23;;;1.13;;
10847;SDS011;5477;48.806;9.154;2023-11-21T09:40:32;1.93;;;1.10;;
10847;SDS011;5477;48.806;9.154;2023-11-21T09:43:00;2.63;;;1.40;;
10847;SDS011;5477;48.806;9.154;2023-11-21T09:45:35;1.40;;;1.03;;
10847;SDS011;5477;48.806;9.154;2023-11-21T09:48:05;2.97;;;1.40;;
10847;SDS011;5477;48.806;9.154;2023-11-21T09:50:37;1.13;;;1.00;;
10847;SDS011;5477;48.806;9.154;2023-11-21T09:53:11;2.00;;;1.17;;
10847;SDS011;5477;48.806;9.154;2023-11-21T09:55:42;3.57;;;1.20;;
10847;SDS011;5477;48.806;9.154;2023-11-21T09:58:11;2.23;;;1.27;;
10847;SDS011;5477;48.806;9.154;2023-11-21T10:00:42;1.00;;;0.87;;
10847;SDS011;5477;48.806;9.154;2023-11-21T10:03:11;0.80;;;0.80;;
10847;SDS011;5477;48.806;9.154;2023-11-21T10:05:41;1.17;;;0.90;;
10847;SDS011;5477;48.806;9.154;2023-11-21T10:08:10;1.00;;;0.90;;
10847;SDS011;5477;48.806;9.154;2023-11-21T10:10:42;1.77;;;1.00;;
10847;SDS011;5477;48.806;9.154;2023-11-21T10:13:13;1.17;;;1.00;;
10847;SDS011;5477;48.806;9.154;2023-11-21T10:15:45;1.80;;;0.93;;
10847;SDS011;5477;48.806;9.154;2023-11-21T10:18:16;1.83;;;1.00;;
10847;SDS011;5477;48.806;9.154;2023-11-21T10:20:45;2.03;;;0.83;;
10847;SDS011;5477;48.806;9.154;2023-11-21T10:23:19;3.23;;;2.10;;
10847;SDS011;5477;48.806;9.154;2023-11-21T10:25:49;4.73;;;1.10;;
10847;SDS011;5477;48.806;9.154;2023-11-21T10:28:18;1.40;;;1.00;;
10847;SDS011;5477;48.806;9.154;2023-11-21T10:30:49;1.23;;;0.90;;
10847;SDS011;5477;48.806;9.154;2023-11-21T10:33:17;2.70;;;1.90;;
10847;SDS011;5477;48.806;9.154;2023-11-21T10:35:54;2.47;;;1.30;;
10847;SDS011;5477;48.806;9.154;2023-11-21T10:38:22;3.10;;;1.00;;
10847;SDS011;5477;48.806;9.154;2023-11-21T10:40:52;0.77;;;0.73;;
10847;SDS011;5477;48.806;9.154;2023-11-21T10:43:22;1.83;;;0.80;;
10847;SDS011;5477;48.806;9.154;2023-11-21T10:45:54;0.70;;;0.70;;
10847;SDS011;5477;48.806;9.154;2023-11-21T10:48:25;1.50;;;0.70;;
10847;SDS011;5477;48.806;9.154;2023-11-21T10:50:53;2.57;;;0.70;;
10847;SDS011;5477;48.806;9.154;2023-11-21T10:53:23;2.10;;;0.90;;
10847;SDS011;5477;48.806;9.154;2023-11-21T10:55:54;2.67;;;0.87;;
10847;SDS011;5477;48.806;9.154;2023-11-21T10:58:30;0.70;;;0.70;;
10847;SDS011;5477;48.806;9.154;2023-11-21T11:01:00;2.00;;;1.00;;
10847;SDS011;5477;48.806;9.154;2023-11-21T11:03:31;1.00;;;0.80;;
10847;SDS011;5477;48.806;9.154;2023-11-21T11:06:04;0.93;;;0.70;;
10847;SDS011;5477;48.806;9.154;2023-11-21T11:08:39;0.90;;;0.80;;
10847;SDS011;5477;48.806;9.154;2023-11-21T11:11:07;0.90;;;0.77;;
10847;SDS011;5477;48.806;9.154;2023-11-21T11:13:37;0.90;;;0.80;;
10847;SDS011;5477;48.806;9.154;2023-11-21T11:16:08;1.40;;;0.90;;
10847;SDS011;5477;48.806;9.154;2023-11-21T11:18:37;1.70;;;1.13;;
10847;SDS011;5477;48.806;9.154;2023-11-21T11:21:07;2.43;;;0.87;;
10847;SDS011;5477;48.806;9.154;2023-11-21T11:23:51;2.17;;;1.37;;
10847;SDS011;5477;48.806;9.154;2023-11-21T11:26:37;1.87;;;1.00;;
10847;SDS011;5477;48.806;9.154;2023-11-21T11:29:11;1.07;;;0.97;;
10847;SDS011;5477;48.806;9.154;2023-11-21T11:31:50;1.20;;;0.90;;
10847;SDS011;5477;48.806;9.154;2023-11-21T11:34:26;2.50;;;1.20;;
10847;SDS011;5477;48.806;9.154;2023-11-21T11:37:00;2.40;;;1.10;;
10847;SDS011;5477;48.806;9.154;2023-11-21T11:39:30;1.40;;;1.23;;
10847;SDS011;5477;48.806;9.154;2023-11-21T11:42:02;1.70;;;1.57;;
10847;SDS011;5477;48.806;9.154;2023-11-21T11:44:48;1.43;;;1.20;;
10847;SDS011;5477;48.806;9.154;2023-11-21T11:47:23;2.57;;;1.40;;
10847;SDS011;5477;48.806;9.154;2023-11-21T11:50:00;1.83;;;1.50;;
10847;SDS011;5477;48.806;9.154;2023-11-21T11:52:37;2.80;;;1.50;;
10847;SDS011;5477;48.806;9.154;2023-11-21T11:55:08;1.50;;;1.23;;
10847;SDS011;5477;48.806;9.154;2023-11-21T11:57:41;1.40;;;1.30;;
10847;SDS011;5477;48.806;9.154;2023-11-21T12:00:11;4.03;;;1.70;;
10847;SDS011;5477;48.806;9.154;2023-11-21T12:02:47;2.87;;;1.93;;
10847;SDS011;5477;48.806;9.154;2023-11-21T12:05:18;2.40;;;1.20;;
10847;SDS011;5477;48.806;9.154;2023-11-21T12:07:48;2.03;;;1.50;;
10847;SDS011;5477;48.806;9.154;2023-11-21T12:10:19;2.33;;;1.67;;
10847;SDS011;5477;48.806;9.154;2023-11-21T12:12:51;1.93;;;1.80;;
10847;SDS011;5477;48.806;9.154;2023-11-21T12:15:21;2.07;;;1.20;;
10847;SDS011;5477;48.806;9.154;2023-11-21T12:17:51;1.60;;;1.43;;
10847;SDS011;5477;48.806;9.154;2023-11-21T12:20:20;1.30;;;1.20;;
10847;SDS011;5477;48.806;9.154;2023-11-21T12:22:50;1.23;;;1.13;;
10847;SDS011;5477;48.806;9.154;2023-11-21T12:25:20;2.87;;;1.60;;
10847;SDS011;5477;48.806;9.154;2023-11-21T12:27:49;1.37;;;1.27;;
10847;SDS011;5477;48.806;9.154;2023-11-21T12:30:19;1.40;;;1.30;;
10847;SDS011;5477;48.806;9.154;2023-11-21T12:32:49;1.47;;;1.33;;
10847;SDS011;5477;48.806;9.154;2023-11-21T12:35:20;1.70;;;1.60;;
10847;SDS011;5477;48.806;9.154;2023-11-21T12:37:49;2.83;;;1.53;;
10847;SDS011;5477;48.806;9.154;2023-11-21T12:40:19;2.33;;;1.50;;
10847;SDS011;5477;48.806;9.154;2023-11-21T12:42:51;1.50;;;1.40;;
10847;SDS011;5477;48.806;9.154;2023-11-21T12:49:34;2.90;;;1.90;;
10847;SDS011;5477;48.806;9.154;2023-11-21T12:52:03;2.77;;;2.20;;
10847;SDS011;5477;48.806;9.154;2023-11-21T12:54:31;1.63;;;1.33;;
10847;SDS011;5477;48.806;9.154;2023-11-21T12:57:01;2.07;;;1.20;;
10847;SDS011;5477;48.806;9.154;2023-11-21T12:59:31;2.57;;;1.70;;
10847;SDS011;5477;48.806;9.154;2023-11-21T13:01:59;1.30;;;1.20;;
10847;SDS011;5477;48.806;9.154;2023-11-21T13:04:31;1.87;;;1.60;;
10847;SDS011;5477;48.806;9.154;2023-11-21T13:07:05;2.33;;;1.40;;
10847;SDS011;5477;48.806;9.154;2023-11-21T13:09:40;1.70;;;1.60;;
10847;SDS011;5477;48.806;9.154;2023-11-21T13:12:08;2.17;;;1.60;;
10847;SDS011;5477;48.806;9.154;2023-11-21T13:14:36;1.20;;;0.90;;
10847;SDS011;5477;48.806;9.154;2023-11-21T13:17:05;0.73;;;0.63;;
10847;SDS011;5477;48.806;9.154;2023-11-21T13:19:34;1.00;;;0.80;;
10847;SDS011;5477;48.806;9.154;2023-11-21T13:22:02;1.17;;;0.83;;
10847;SDS011;5477;48.806;9.154;2023-11-21T13:24:30;2.37;;;0.87;;
10847;SDS011;5477;48.806;9.154;2023-11-21T13:26:58;1.90;;;1.10;;
10847;SDS011;5477;48.806;9.154;2023-11-21T13:29:26;1.97;;;1.30;;
10847;SDS011;5477;48.806;9.154;2023-11-21T13:31:56;1.73;;;1.43;;
10847;SDS011;5477;48.806;9.154;2023-11-21T13:34:24;2.97;;;1.87;;
10847;SDS011;5477;48.806;9.154;2023-11-21T13:37:00;3.57;;;1.67;;
10847;SDS011;5477;48.806;9.154;2023-11-21T13:39:30;2.10;;;1.43;;
10847;SDS011;5477;48.806;9.154;2023-11-21T13:41:58;1.60;;;1.20;;
10847;SDS011;5477;48.806;9.154;2023-11-21T13:44:26;4.30;;;1.57;;
10847;SDS011;5477;48.806;9.154;2023-11-21T13:47:01;3.33;;;1.33;;
10847;SDS011;5477;48.806;9.154;2023-11-21T13:49:29;3.57;;;1.60;;
10847;SDS011;5477;48.806;9.154;2023-11-21T13:52:04;1.80;;;1.50;;
10847;SDS011;5477;48.806;9.154;2023-11-21T13:54:33;3.30;;;1.30;;
10847;SDS011;5477;48.806;9.154;2023-11-21T13:57:01;2.50;;;1.40;;
10847;SDS011;5477;48.806;9.154;2023-11-21T13:59:31;2.63;;;1.33;;
10847;SDS011;5477;48.806;9.154;2023-11-21T14:02:00;1.47;;;1.30;;
10847;SDS011;5477;48.806;9.154;2023-11-21T14:04:43;1.73;;;1.57;;
10847;SDS011;5477;48.806;9.154;2023-11-21T14:07:24;2.30;;;1.60;;
10847;SDS011;5477;48.806;9.154;2023-11-21T14:10:01;3.03;;;2.40;;
10847;SDS011;5477;48.806;9.154;2023-11-21T14:12:31;2.60;;;2.20;;
10847;SDS011;5477;48.806;9.154;2023-11-21T14:15:05;2.13;;;1.93;;
10847;SDS011;5477;48.806;9.154;2023-11-21T14:17:36;2.23;;;2.03;;
10847;SDS011;5477;48.806;9.154;2023-11-21T14:20:06;1.93;;;1.53;;
10847;SDS011;5477;48.806;9.154;2023-11-21T14:22:43;2.87;;;1.90;;
10847;SDS011;5477;48.806;9.154;2023-11-21T14:25:12;2.63;;;2.40;;
10847;SDS011;5477;48.806;9.154;2023-11-21T14:27:40;2.77;;;2.10;;
10847;SDS011;5477;48.806;9.154;2023-11-21T14:30:09;2.90;;;1.83;;
10847;SDS011;5477;48.806;9.154;2023-11-21T14:32:40;2.47;;;1.70;;
10847;SDS011;5477;48.806;9.154;2023-11-21T14:35:10;2.20;;;2.00;;
10847;SDS011;5477;48.806;9.154;2023-11-21T14:37:40;3.33;;;2.00;;
10847;SDS011;5477;48.806;9.154;2023-11-21T14:40:12;1.97;;;1.73;;
10847;SDS011;5477;48.806;9.154;2023-11-21T14:42:42;2.50;;;1.70;;
10847;SDS011;5477;48.806;9.154;2023-11-21T14:45:27;2.73;;;1.70;;
10847;SDS011;5477;48.806;9.154;2023-11-21T14:47:56;2.27;;;1.60;;
10847;SDS011;5477;48.806;9.154;2023-11-21T14:50:33;2.00;;;1.80;;
10847;SDS011;5477;48.806;9.154;2023-11-21T14:53:37;2.93;;;1.93;;
10847;SDS011;5477;48.806;9.154;2023-11-21T14:56:09;3.67;;;1.83;;
10847;SDS011;5477;48.806;9.154;2023-11-21T14:58:44;2.40;;;2.20;;
10847;SDS011;5477;48.806;9.154;2023-11-21T15:01:11;2.37;;;2.10;;
10847;SDS011;5477;48.806;9.154;2023-11-21T15:03:39;3.43;;;1.90;;
10847;SDS011;5477;48.806;9.154;2023-11-21T15:06:13;2.90;;;2.60;;
10847;SDS011;5477;48.806;9.154;2023-11-21T15:08:54;4.47;;;3.60;;
10847;SDS011;5477;48.806;9.154;2023-11-21T15:11:37;3.00;;;2.70;;
10847;SDS011;5477;48.806;9.154;2023-11-21T15:14:05;2.73;;;2.47;;
10847;SDS011;5477;48.806;9.154;2023-11-21T15:16:36;2.97;;;2.67;;
10847;SDS011;5477;48.806;9.154;2023-11-21T15:19:06;4.77;;;3.30;;
10847;SDS011;5477;48.806;9.154;2023-11-21T15:21:35;3.03;;;2.40;;
10847;SDS011;5477;48.806;9.154;2023-11-21T15:24:06;3.07;;;2.80;;
10847;SDS011;5477;48.806;9.154;2023-11-21T15:26:34;4.10;;;3.50;;
10847;SDS011;5477;48.806;9.154;2023-11-21T15:29:02;4.47;;;4.00;;
10847;SDS011;5477;48.806;9.154;2023-11-21T15:31:30;29.30;;;20.30;;